Rhapsody Of The Seas — C6UA2 — position and weather

sailwx.info

Track history (hours):
 
Tides and Currents Weather Stations Pressure Air Temp Water Temp Dewpoint Dewpoint Depression Visibility Wind Speed Wind Dir Waves Ship Positions

Rhapsody Of The Seas

Last reported at 2018-Dec-11 15:56 UTC. Time now 2018-Dec-12 13:50 UTC.
Position N 28°58' W 013°32'.

Type: Passenger vessel. MMSI: 311805000.

Date/timePositionNaut miles runAvg speedWind from/ knotsBaromVisibWave heightAir tempDewpointWater temp
2018-Dec-11 15:56N 28°58' W 013°32'0 0.0
2018-Dec-11 15:25N 28°58' W 013°32'0 0.0
2018-Dec-11 14:55N 28°58' W 013°32'0 0.0
2018-Dec-11 14:25N 28°58' W 013°32'0 0.0
2018-Dec-11 13:01N 28°58' W 013°32'0 0.0
2018-Dec-11 12:43N 28°58' W 013°32'0 0.0
2018-Dec-11 12:13N 28°58' W 013°32'0 0.0
2018-Dec-11 11:31N 28°58' W 013°32'0 0.0
2018-Dec-11 10:26N 28°58' W 013°32'0 0.0
2018-Dec-11 09:44N 28°58' W 013°32'0 0.0
2018-Dec-11 09:26N 28°58' W 013°32'2 3.3
2018-Dec-11 08:55N 28°57' W 013°30'715.8
2018-Dec-11 08:30N 29°00' W 013°24'916.9
2018-Dec-11 07:59N 29°05' W 013°16'56717.2
2018-Dec-09 22:58N 35°58' W 005°34'816.5
2018-Dec-09 22:30N 35°60' W 005°25'816.2
2018-Dec-09 22:00N 36°02' W 005°15'21516.6
2018-Dec-09 09:03N 37°13' W 001°03'117.8
2018-Dec-09 08:59N 37°14' W 001°02'918.0
2018-Dec-09 08:28N 37°21' W 000°53'818.0
2018-Dec-09 08:01N 37°26' W 000°46'1117.8
2018-Dec-09 07:24N 37°34' W 000°36'717.9
2018-Dec-09 07:01N 37°39' W 000°30'918.2
2018-Dec-09 06:30N 37°46' W 000°23'1618.1
2018-Dec-09 05:38N 37°60' W 000°12'21017.3
2018-Dec-08 17:32N 41°02' E 002°01'117.8
2018-Dec-08 17:28N 41°03' E 002°02'817.7
2018-Dec-08 17:01N 41°11' E 002°07'816.4
2018-Dec-08 16:31N 41°18' E 002°10'3 6.4
2018-Dec-08 16:00N 41°22' E 002°11'0 0.0
2018-Dec-08 15:30N 41°22' E 002°11'0 0.0
2018-Dec-08 15:00N 41°22' E 002°11'0 0.0
2018-Dec-08 14:30N 41°22' E 002°11'0 0.0
2018-Dec-08 13:57N 41°22' E 002°11'0 0.0
2018-Dec-08 13:30N 41°22' E 002°11'0 0.0
2018-Dec-08 13:00N 41°22' E 002°11'0 0.0
2018-Dec-08 12:30N 41°22' E 002°11'0 0.0
2018-Dec-08 12:00N 41°22' E 002°11'0 0.0
2018-Dec-08 11:30N 41°22' E 002°11'0 0.0
2018-Dec-08 10:57N 41°22' E 002°11'0 0.0
2018-Dec-08 10:30N 41°22' E 002°11'0 0.0
2018-Dec-08 10:00N 41°22' E 002°11'0 0.0
2018-Dec-08 09:30N 41°22' E 002°11'0 0.0
2018-Dec-08 09:00N 41°22' E 002°11'0 0.0
2018-Dec-08 08:30N 41°22' E 002°11'0 0.0
2018-Dec-08 08:00N 41°22' E 002°11'0 0.0
2018-Dec-08 07:30N 41°22' E 002°11'0 0.0
2018-Dec-08 07:00N 41°22' E 002°11'0 0.0
2018-Dec-08 06:30N 41°22' E 002°11'0 0.0
2018-Dec-08 06:00N 41°22' E 002°11'0 0.0
2018-Dec-08 05:30N 41°22' E 002°11'0 0.0
2018-Dec-08 05:00N 41°22' E 002°11'0 0.0
2018-Dec-08 04:31N 41°22' E 002°11'2 3.0
2018-Dec-08 03:59N 41°20' E 002°10'4 8.5
2018-Dec-08 03:31N 41°16' E 002°12'510.2
2018-Dec-08 03:01N 41°16' E 002°19'510.6
2018-Dec-08 02:30N 41°16' E 002°26'  
2018-Dec-05 20:19N 40°49' E 013°34'1013.3
2018-Dec-05 19:35N 40°43' E 013°45'113.4
2018-Dec-05 19:30N 40°42' E 013°46'613.0
2018-Dec-05 19:00N 40°39' E 013°53'713.0
2018-Dec-05 18:30N 40°39' E 014°02'713.2
2018-Dec-05 18:00N 40°42' E 014°09'713.7
2018-Dec-05 17:30N 40°47' E 014°15'3 6.4
2018-Dec-05 17:00N 40°50' E 014°16'0 0.0
2018-Dec-05 16:30N 40°50' E 014°16'0 0.0
2018-Dec-05 16:00N 40°50' E 014°16'0 0.0
2018-Dec-05 15:30N 40°50' E 014°16'0 0.0
2018-Dec-05 15:00N 40°50' E 014°16'0 0.0
2018-Dec-05 14:30N 40°50' E 014°16'0 0.0
2018-Dec-05 14:00N 40°50' E 014°16'0 0.0
2018-Dec-05 13:30N 40°50' E 014°16'0 0.0
2018-Dec-05 13:00N 40°50' E 014°16'0 0.0
2018-Dec-05 12:30N 40°50' E 014°16'0 0.0
2018-Dec-05 12:00N 40°50' E 014°16'0 0.0
2018-Dec-05 11:30N 40°50' E 014°16'0 0.0
2018-Dec-05 11:00N 40°50' E 014°16'0 0.0
2018-Dec-05 10:30N 40°50' E 014°16'0 0.0
2018-Dec-05 10:00N 40°50' E 014°16'0 0.0
2018-Dec-05 09:30N 40°50' E 014°16'0 0.0
2018-Dec-05 09:00N 40°50' E 014°16'0 0.0
2018-Dec-05 08:30N 40°50' E 014°16'0 0.0
2018-Dec-05 08:00N 40°50' E 014°16'0 0.0
2018-Dec-05 07:30N 40°50' E 014°16'0 0.0
2018-Dec-05 07:00N 40°50' E 014°16'0 0.0
2018-Dec-05 06:30N 40°50' E 014°16'0 0.0
2018-Dec-05 06:00N 40°50' E 014°16'0 0.2
2018-Dec-05 05:30N 40°50' E 014°16'2 4.1
2018-Dec-05 05:00N 40°49' E 014°17'713.9
2018-Dec-05 04:31N 40°42' E 014°13'815.1
2018-Dec-05 04:00N 40°35' E 014°09'714.7
2018-Dec-05 03:30N 40°28' E 014°10'815.8
2018-Dec-05 03:00N 40°21' E 014°15'815.6
2018-Dec-05 02:30N 40°14' E 014°20'815.9
2018-Dec-05 02:00N 40°07' E 014°26'11615.2
2018-Dec-04 18:22N 38°26' E 015°39'514.5
2018-Dec-04 18:00N 38°21' E 015°43'912.1
2018-Dec-04 17:15N 38°13' E 015°37'415.0
2018-Dec-04 17:00N 38°10' E 015°36'1412.8
2018-Dec-04 15:55N 37°56' E 015°38'  
2018-Dec-01 20:56N 44°41' E 013°29'920.4
2018-Dec-01 20:30N 44°48' E 013°22'1020.3
2018-Dec-01 20:01N 44°56' E 013°13'1020.4
2018-Dec-01 19:31N 45°04' E 013°03'1020.4
2018-Dec-01 19:01N 45°10' E 012°52'1020.3
2018-Dec-01 18:31N 45°17' E 012°41'1019.9
2018-Dec-01 18:00N 45°23' E 012°30'611.3
2018-Dec-01 17:30N 45°26' E 012°24'3 5.0
2018-Dec-01 17:00N 45°26' E 012°20'1 2.7
2018-Dec-01 16:30N 45°26' E 012°18'0 0.1
2018-Dec-01 16:00N 45°26' E 012°18'  
Track history (hours):
 
Tides and Currents Weather Stations Pressure Air Temp Water Temp Dewpoint Dewpoint Depression Visibility Wind Speed Wind Dir Waves Ship Positions

Rhapsody Of The Seas

Last reported at 2018-Dec-11 15:56 UTC. Time now 2018-Dec-12 13:50 UTC.
Position N 28°58' W 013°32'.

Type: Passenger vessel. MMSI: 311805000.

Date/timePositionNaut miles runAvg speedWind from/ knotsBaromVisibWave heightAir tempDewpointWater temp
2018-Dec-11 15:56N 28°58' W 013°32'0 0.0
2018-Dec-11 15:25N 28°58' W 013°32'0 0.0
2018-Dec-11 14:55N 28°58' W 013°32'0 0.0
2018-Dec-11 14:25N 28°58' W 013°32'0 0.0
2018-Dec-11 13:01N 28°58' W 013°32'0 0.0
2018-Dec-11 12:43N 28°58' W 013°32'0 0.0
2018-Dec-11 12:13N 28°58' W 013°32'0 0.0
2018-Dec-11 11:31N 28°58' W 013°32'0 0.0
2018-Dec-11 10:26N 28°58' W 013°32'0 0.0
2018-Dec-11 09:44N 28°58' W 013°32'0 0.0
2018-Dec-11 09:26N 28°58' W 013°32'2 3.3
2018-Dec-11 08:55N 28°57' W 013°30'715.8
2018-Dec-11 08:30N 29°00' W 013°24'916.9
2018-Dec-11 07:59N 29°05' W 013°16'56717.2
2018-Dec-09 22:58N 35°58' W 005°34'816.5
2018-Dec-09 22:30N 35°60' W 005°25'816.2
2018-Dec-09 22:00N 36°02' W 005°15'21516.6
2018-Dec-09 09:03N 37°13' W 001°03'117.8
2018-Dec-09 08:59N 37°14' W 001°02'918.0
2018-Dec-09 08:28N 37°21' W 000°53'818.0
2018-Dec-09 08:01N 37°26' W 000°46'1117.8
2018-Dec-09 07:24N 37°34' W 000°36'717.9
2018-Dec-09 07:01N 37°39' W 000°30'918.2
2018-Dec-09 06:30N 37°46' W 000°23'1618.1
2018-Dec-09 05:38N 37°60' W 000°12'21017.3
2018-Dec-08 17:32N 41°02' E 002°01'117.8
2018-Dec-08 17:28N 41°03' E 002°02'817.7
2018-Dec-08 17:01N 41°11' E 002°07'816.4
2018-Dec-08 16:31N 41°18' E 002°10'3 6.4
2018-Dec-08 16:00N 41°22' E 002°11'0 0.0
2018-Dec-08 15:30N 41°22' E 002°11'0 0.0
2018-Dec-08 15:00N 41°22' E 002°11'0 0.0
2018-Dec-08 14:30N 41°22' E 002°11'0 0.0
2018-Dec-08 13:57N 41°22' E 002°11'0 0.0
2018-Dec-08 13:30N 41°22' E 002°11'0 0.0
2018-Dec-08 13:00N 41°22' E 002°11'0 0.0
2018-Dec-08 12:30N 41°22' E 002°11'0 0.0
2018-Dec-08 12:00N 41°22' E 002°11'0 0.0
2018-Dec-08 11:30N 41°22' E 002°11'0 0.0
2018-Dec-08 10:57N 41°22' E 002°11'0 0.0
2018-Dec-08 10:30N 41°22' E 002°11'0 0.0
2018-Dec-08 10:00N 41°22' E 002°11'0 0.0
2018-Dec-08 09:30N 41°22' E 002°11'0 0.0
2018-Dec-08 09:00N 41°22' E 002°11'0 0.0
2018-Dec-08 08:30N 41°22' E 002°11'0 0.0
2018-Dec-08 08:00N 41°22' E 002°11'0 0.0
2018-Dec-08 07:30N 41°22' E 002°11'0 0.0
2018-Dec-08 07:00N 41°22' E 002°11'0 0.0
2018-Dec-08 06:30N 41°22' E 002°11'0 0.0
2018-Dec-08 06:00N 41°22' E 002°11'0 0.0
2018-Dec-08 05:30N 41°22' E 002°11'0 0.0
2018-Dec-08 05:00N 41°22' E 002°11'0 0.0
2018-Dec-08 04:31N 41°22' E 002°11'2 3.0
2018-Dec-08 03:59N 41°20' E 002°10'4 8.5
2018-Dec-08 03:31N 41°16' E 002°12'510.2
2018-Dec-08 03:01N 41°16' E 002°19'510.6
2018-Dec-08 02:30N 41°16' E 002°26'  
2018-Dec-05 20:19N 40°49' E 013°34'1013.3
2018-Dec-05 19:35N 40°43' E 013°45'113.4
2018-Dec-05 19:30N 40°42' E 013°46'613.0
2018-Dec-05 19:00N 40°39' E 013°53'713.0
2018-Dec-05 18:30N 40°39' E 014°02'713.2
2018-Dec-05 18:00N 40°42' E 014°09'713.7
2018-Dec-05 17:30N 40°47' E 014°15'3 6.4
2018-Dec-05 17:00N 40°50' E 014°16'0 0.0
2018-Dec-05 16:30N 40°50' E 014°16'0 0.0
2018-Dec-05 16:00N 40°50' E 014°16'0 0.0
2018-Dec-05 15:30N 40°50' E 014°16'0 0.0
2018-Dec-05 15:00N 40°50' E 014°16'0 0.0
2018-Dec-05 14:30N 40°50' E 014°16'0 0.0
2018-Dec-05 14:00N 40°50' E 014°16'0 0.0
2018-Dec-05 13:30N 40°50' E 014°16'0 0.0
2018-Dec-05 13:00N 40°50' E 014°16'0 0.0
2018-Dec-05 12:30N 40°50' E 014°16'0 0.0
2018-Dec-05 12:00N 40°50' E 014°16'0 0.0
2018-Dec-05 11:30N 40°50' E 014°16'0 0.0
2018-Dec-05 11:00N 40°50' E 014°16'0 0.0
2018-Dec-05 10:30N 40°50' E 014°16'0 0.0
2018-Dec-05 10:00N 40°50' E 014°16'0 0.0
2018-Dec-05 09:30N 40°50' E 014°16'0 0.0
2018-Dec-05 09:00N 40°50' E 014°16'0 0.0
2018-Dec-05 08:30N 40°50' E 014°16'0 0.0
2018-Dec-05 08:00N 40°50' E 014°16'0 0.0
2018-Dec-05 07:30N 40°50' E 014°16'0 0.0
2018-Dec-05 07:00N 40°50' E 014°16'0 0.0
2018-Dec-05 06:30N 40°50' E 014°16'0 0.0
2018-Dec-05 06:00N 40°50' E 014°16'0 0.2
2018-Dec-05 05:30N 40°50' E 014°16'2 4.1
2018-Dec-05 05:00N 40°49' E 014°17'713.9
2018-Dec-05 04:31N 40°42' E 014°13'815.1
2018-Dec-05 04:00N 40°35' E 014°09'714.7
2018-Dec-05 03:30N 40°28' E 014°10'815.8
2018-Dec-05 03:00N 40°21' E 014°15'815.6
2018-Dec-05 02:30N 40°14' E 014°20'815.9
2018-Dec-05 02:00N 40°07' E 014°26'11615.2
2018-Dec-04 18:22N 38°26' E 015°39'514.5
2018-Dec-04 18:00N 38°21' E 015°43'912.1
2018-Dec-04 17:15N 38°13' E 015°37'415.0
2018-Dec-04 17:00N 38°10' E 015°36'1412.8
2018-Dec-04 15:55N 37°56' E 015°38'  
2018-Dec-01 20:56N 44°41' E 013°29'920.4
2018-Dec-01 20:30N 44°48' E 013°22'1020.3
2018-Dec-01 20:01N 44°56' E 013°13'1020.4
2018-Dec-01 19:31N 45°04' E 013°03'1020.4
2018-Dec-01 19:01N 45°10' E 012°52'1020.3
2018-Dec-01 18:31N 45°17' E 012°41'1019.9
2018-Dec-01 18:00N 45°23' E 012°30'611.3
2018-Dec-01 17:30N 45°26' E 012°24'3 5.0
2018-Dec-01 17:00N 45°26' E 012°20'1 2.7
2018-Dec-01 16:30N 45°26' E 012°18'0 0.1
2018-Dec-01 16:00N 45°26' E 012°18'  

Dump ship's entire track history